AIRPORT ID: KTHM

DATE: 2024-05-27 ZULU TIME: 21.55 LOCAL TIME: 15.55


METAR KTHM 272155Z AUTO 00000KT 10SM 23/11 A3012

ALTIMETER: A3012 Q1020

DENSITY ALT: 3600 Ft

WIND DIRECT: 250

WIND SPEED: 1 Gust

WIND CONDITIONS:

VISIBILTY: 10SM 9999M

TEMPERATURE: 73 F 23 C

DEW POINT: 52 F 11 C

HUMID: 48%

LCL: Above 5,000 feet

RADIO CHECK: 0

ADVISARIES: 0

GREETINGS: 0

CONVERSATIONS: 0